createdAt,value
2022-11-27T00:00:26.791Z,5.41
2022-11-27T00:02:57.738Z,5.37
2022-11-27T00:05:28.028Z,5.35
2022-11-27T00:07:58.369Z,5.37
2022-11-27T00:10:28.316Z,5.41
2022-11-27T00:12:59.143Z,5.40
2022-11-27T00:15:29.923Z,5.33
2022-11-27T00:18:00.701Z,5.28
2022-11-27T00:20:31.322Z,5.25
2022-11-27T00:23:01.813Z,5.26
2022-11-27T00:25:32.597Z,5.26
2022-11-27T00:28:03.333Z,5.21
2022-11-27T00:30:33.452Z,5.22
2022-11-27T00:33:03.941Z,5.22
2022-11-27T00:35:34.412Z,5.19
2022-11-27T00:38:05.245Z,5.20
2022-11-27T00:40:35.654Z,5.18
2022-11-27T00:43:06.365Z,5.13
2022-11-27T00:45:37.140Z,5.15
2022-11-27T00:48:07.365Z,5.12
2022-11-27T00:50:37.709Z,5.09
2022-11-27T00:53:08.476Z,5.06
2022-11-27T00:55:39.270Z,5.04
2022-11-27T00:58:10.123Z,5.05
2022-11-27T01:00:40.412Z,5.03
2022-11-27T01:03:11.231Z,4.97
2022-11-27T01:05:41.928Z,5.00
2022-11-27T01:08:12.140Z,4.96
2022-11-27T01:10:42.255Z,4.96
2022-11-27T01:13:12.750Z,4.89
2022-11-27T01:15:42.908Z,4.91
2022-11-27T01:18:13.654Z,4.87
2022-11-27T01:20:44.119Z,4.86
2022-11-27T01:23:14.557Z,4.81
2022-11-27T01:25:45.106Z,4.80
2022-11-27T01:28:15.210Z,4.78
2022-11-27T01:30:46.016Z,4.73
2022-11-27T01:33:16.278Z,4.70
2022-11-27T01:35:46.417Z,4.67
2022-11-27T01:38:16.595Z,4.66
2022-11-27T01:40:47.361Z,4.69
2022-11-27T01:43:18.070Z,4.71
2022-11-27T01:45:48.263Z,4.71
2022-11-27T01:48:18.864Z,4.71
2022-11-27T01:50:49.591Z,4.72
2022-11-27T01:53:20.412Z,4.68
2022-11-27T01:55:51.057Z,4.64
2022-11-27T01:58:21.846Z,4.55
2022-11-27T02:00:52.314Z,4.51
2022-11-27T02:03:23.208Z,4.49
2022-11-27T02:05:53.874Z,4.51
2022-11-27T02:08:24.622Z,4.49
2022-11-27T02:10:55.376Z,4.47
2022-11-27T02:13:25.900Z,4.45
2022-11-27T02:15:56.709Z,4.48
2022-11-27T02:18:27.393Z,4.49
2022-11-27T02:20:58.157Z,4.49
2022-11-27T02:23:28.932Z,4.47
2022-11-27T02:25:59.420Z,4.48
2022-11-27T02:28:30.202Z,4.41
2022-11-27T02:31:01.051Z,4.39
2022-11-27T02:33:31.388Z,4.35
2022-11-27T02:36:01.677Z,4.42
2022-11-27T02:38:31.885Z,4.36
2022-11-27T02:41:02.636Z,4.38
2022-11-27T02:43:33.350Z,4.39
2022-11-27T02:46:03.897Z,4.31
2022-11-27T02:48:34.615Z,4.32
2022-11-27T02:51:05.459Z,4.30
2022-11-27T02:53:35.879Z,4.29
2022-11-27T02:56:06.389Z,4.20
2022-11-27T02:58:37.167Z,4.22
2022-11-27T03:01:07.675Z,4.15
2022-11-27T03:03:38.434Z,4.17
2022-11-27T03:06:08.720Z,4.17
2022-11-27T03:08:39.385Z,4.11
2022-11-27T03:11:10.179Z,4.12
2022-11-27T03:13:40.934Z,4.01
2022-11-27T03:16:11.820Z,4.03
2022-11-27T03:18:42.484Z,4.06
2022-11-27T03:21:13.270Z,4.05
2022-11-27T03:23:43.690Z,4.00
2022-11-27T03:26:14.511Z,3.95
2022-11-27T03:28:45.337Z,3.96
2022-11-27T03:31:16.135Z,4.00
2022-11-27T03:33:46.860Z,3.98
2022-11-27T03:36:17.656Z,3.95
2022-11-27T03:38:48.166Z,3.94
2022-11-27T03:41:18.975Z,3.89
2022-11-27T03:43:49.115Z,3.88
2022-11-27T03:46:19.955Z,3.90
2022-11-27T03:48:50.417Z,3.95
2022-11-27T03:51:21.207Z,3.97
2022-11-27T03:53:51.993Z,3.95
2022-11-27T03:56:22.504Z,3.96
2022-11-27T03:58:52.921Z,3.95
2022-11-27T04:01:23.500Z,3.98
2022-11-27T04:03:54.345Z,3.97
2022-11-27T04:06:25.010Z,3.94
2022-11-27T04:08:55.878Z,3.88
2022-11-27T04:11:26.597Z,3.91
2022-11-27T04:13:57.431Z,3.88
2022-11-27T04:16:28.336Z,3.86
2022-11-27T04:18:58.961Z,3.79
2022-11-27T04:21:29.858Z,3.81
2022-11-27T04:24:00.541Z,3.80
2022-11-27T04:26:31.352Z,3.75
2022-11-27T04:29:01.530Z,3.72
2022-11-27T04:31:32.363Z,3.73
2022-11-27T04:34:03.084Z,3.70
2022-11-27T04:36:38.796Z,3.68
2022-11-27T04:39:04.394Z,3.65
2022-11-27T04:41:34.930Z,3.60
2022-11-27T04:44:05.717Z,3.64
2022-11-27T04:46:36.612Z,3.66
2022-11-27T04:49:07.295Z,3.70
2022-11-27T04:51:38.088Z,3.75
2022-11-27T04:54:08.522Z,3.71
2022-11-27T04:56:39.335Z,3.70
2022-11-27T04:59:10.128Z,3.62
2022-11-27T05:01:40.379Z,3.72
2022-11-27T05:04:11.168Z,3.76
2022-11-27T05:06:41.980Z,3.76
2022-11-27T05:09:12.425Z,3.79
2022-11-27T05:11:42.994Z,3.82
2022-11-27T05:14:13.437Z,3.81
2022-11-27T05:16:44.237Z,3.77
2022-11-27T05:19:14.677Z,3.83
2022-11-27T05:21:44.921Z,3.82
2022-11-27T05:24:15.715Z,3.77
2022-11-27T05:26:46.177Z,3.73
2022-11-27T05:29:16.468Z,3.81
2022-11-27T05:31:46.729Z,3.82
2022-11-27T05:34:17.447Z,3.85
2022-11-27T05:36:48.228Z,3.92
2022-11-27T05:39:19.143Z,3.93
2022-11-27T05:41:49.846Z,3.92
2022-11-27T05:44:20.273Z,3.86
2022-11-27T05:46:50.878Z,3.87
2022-11-27T05:49:21.569Z,3.81
2022-11-27T05:51:52.375Z,3.82
2022-11-27T05:54:23.220Z,3.83
2022-11-27T05:56:53.703Z,3.78
2022-11-27T05:59:24.494Z,3.78
2022-11-27T06:01:55.343Z,3.80
2022-11-27T06:04:26.087Z,3.69
2022-11-27T06:06:56.895Z,3.68
2022-11-27T06:09:27.688Z,3.69
2022-11-27T06:11:58.521Z,3.83
2022-11-27T06:14:28.946Z,3.89
2022-11-27T06:16:59.384Z,3.83
2022-11-27T06:19:29.891Z,3.79
2022-11-27T06:22:00.779Z,3.68
2022-11-27T06:24:31.454Z,3.57
2022-11-27T06:27:02.255Z,3.58
2022-11-27T06:29:32.962Z,3.57
2022-11-27T06:32:03.460Z,3.55
2022-11-27T06:34:33.411Z,3.59
2022-11-27T06:37:05.408Z,3.59
2022-11-27T06:39:34.635Z,3.59
2022-11-27T06:42:05.436Z,3.58
2022-11-27T06:44:36.217Z,3.60
2022-11-27T06:47:06.725Z,3.60
2022-11-27T06:49:37.241Z,3.65
2022-11-27T06:52:08.032Z,3.70
2022-11-27T06:54:39.179Z,3.66
2022-11-27T06:57:09.606Z,3.72
2022-11-27T06:59:40.387Z,3.71
2022-11-27T07:02:11.218Z,3.68
2022-11-27T07:04:41.974Z,3.70
2022-11-27T07:07:12.413Z,3.71
2022-11-27T07:09:42.985Z,3.66
2022-11-27T07:12:13.677Z,3.73
2022-11-27T07:14:44.453Z,3.75
2022-11-27T07:17:15.249Z,3.77
2022-11-27T07:19:45.754Z,3.72
2022-11-27T07:22:16.551Z,3.75
2022-11-27T07:24:47.342Z,3.78
2022-11-27T07:27:18.140Z,3.75
2022-11-27T07:29:48.912Z,3.78
2022-11-27T07:32:19.711Z,3.73
2022-11-27T07:34:50.495Z,3.72
2022-11-27T07:37:20.951Z,3.71
2022-11-27T07:40:02.617Z,3.75
2022-11-27T07:42:37.469Z,3.76
2022-11-27T07:44:52.682Z,3.73
2022-11-27T07:47:23.463Z,3.76
2022-11-27T07:49:54.334Z,3.73
2022-11-27T07:52:24.745Z,3.77
2022-11-27T07:54:55.425Z,3.80
2022-11-27T07:57:25.926Z,3.84
2022-11-27T07:59:56.691Z,3.86
2022-11-27T08:02:27.470Z,3.84
2022-11-27T08:04:58.310Z,3.88
2022-11-27T08:07:29.120Z,3.90
2022-11-27T08:09:59.758Z,3.86
2022-11-27T08:12:30.643Z,3.87
2022-11-27T08:15:01.352Z,3.87
2022-11-27T08:17:31.518Z,3.86
2022-11-27T08:20:02.016Z,3.86
2022-11-27T08:22:32.813Z,3.83
2022-11-27T08:25:02.964Z,3.83
2022-11-27T08:27:33.235Z,3.80
2022-11-27T08:30:03.988Z,3.82
2022-11-27T08:32:34.842Z,3.90
2022-11-27T08:35:05.565Z,3.90
2022-11-27T08:37:36.362Z,4.00
2022-11-27T08:40:07.149Z,4.05
2022-11-27T08:42:37.605Z,4.09
2022-11-27T08:45:08.108Z,4.16
2022-11-27T08:47:38.626Z,4.11
2022-11-27T08:50:09.413Z,4.09
2022-11-27T08:52:39.843Z,4.12
2022-11-27T08:55:10.633Z,4.11
2022-11-27T08:57:41.430Z,4.11
2022-11-27T09:00:12.205Z,4.10
2022-11-27T09:02:43.002Z,4.14
2022-11-27T09:05:13.780Z,4.06
2022-11-27T09:07:44.340Z,4.22
2022-11-27T09:10:14.802Z,4.23
2022-11-27T09:12:45.230Z,4.29
2022-11-27T09:15:15.996Z,4.19
2022-11-27T09:17:46.775Z,4.25
2022-11-27T09:20:17.591Z,4.37
2022-11-27T09:22:48.320Z,4.39
2022-11-27T09:25:19.081Z,4.44
2022-11-27T09:27:49.571Z,4.44
2022-11-27T09:30:20.323Z,4.55
2022-11-27T09:32:50.846Z,4.65
2022-11-27T09:35:21.654Z,4.67
2022-11-27T09:37:51.987Z,4.77
2022-11-27T09:40:22.788Z,4.82
2022-11-27T09:42:53.027Z,4.86
2022-11-27T09:45:23.127Z,4.92
2022-11-27T09:47:53.887Z,4.98
2022-11-27T09:50:24.658Z,5.01
2022-11-27T09:52:55.065Z,5.04
2022-11-27T09:55:25.534Z,5.08
2022-11-27T09:57:56.050Z,5.12
2022-11-27T10:00:26.432Z,5.17
2022-11-27T10:02:57.121Z,5.21
2022-11-27T10:05:27.013Z,5.23
2022-11-27T10:08:01.852Z,5.28
2022-11-27T10:10:28.170Z,5.35
2022-11-27T10:12:58.351Z,5.37
2022-11-27T10:15:29.065Z,5.41
2022-11-27T10:17:59.813Z,5.47
2022-11-27T10:20:30.330Z,5.49
2022-11-27T10:23:00.791Z,5.47
2022-11-27T10:25:31.235Z,5.53
2022-11-27T10:28:01.914Z,5.56
2022-11-27T10:30:32.700Z,5.59
2022-11-27T10:33:03.498Z,5.62
2022-11-27T10:35:34.068Z,5.64
2022-11-27T10:38:06.977Z,5.60
2022-11-27T10:40:34.964Z,5.61
2022-11-27T10:43:05.360Z,5.57
2022-11-27T10:45:36.120Z,5.57
2022-11-27T10:48:06.800Z,5.60
2022-11-27T10:50:36.902Z,5.59
2022-11-27T10:53:07.139Z,5.56
2022-11-27T10:55:37.511Z,5.58
2022-11-27T10:58:07.966Z,5.58
2022-11-27T11:00:38.679Z,5.59
2022-11-27T11:03:09.134Z,5.54
2022-11-27T11:05:57.434Z,5.52
2022-11-27T11:08:09.554Z,5.54
2022-11-27T11:10:39.842Z,5.54
2022-11-27T11:13:10.584Z,5.57
2022-11-27T11:15:41.236Z,5.60
2022-11-27T11:18:11.972Z,5.63
2022-11-27T11:20:42.694Z,5.63
2022-11-27T11:23:12.795Z,5.63
2022-11-27T11:25:43.369Z,5.65
2022-11-27T11:28:13.889Z,5.67
2022-11-27T11:30:44.654Z,5.72
2022-11-27T11:33:15.441Z,5.76
2022-11-27T11:35:45.804Z,5.79
2022-11-27T11:38:16.587Z,5.80
2022-11-27T11:40:46.624Z,5.84
2022-11-27T11:43:17.167Z,5.83
2022-11-27T11:45:47.214Z,5.87
2022-11-27T11:48:17.336Z,5.90
2022-11-27T11:50:48.043Z,5.85
2022-11-27T11:53:18.776Z,5.87
2022-11-27T11:55:49.555Z,5.84
2022-11-27T11:58:19.884Z,5.83
2022-11-27T12:01:19.326Z,5.81
2022-11-27T12:03:20.899Z,5.84
2022-11-27T12:05:51.498Z,5.80
2022-11-27T12:08:21.841Z,5.81
2022-11-27T12:10:52.217Z,5.78
2022-11-27T12:13:23.047Z,5.83
2022-11-27T12:15:53.199Z,5.96
2022-11-27T12:18:23.573Z,6.08
2022-11-27T12:20:53.708Z,6.12
2022-11-27T12:23:24.082Z,6.17
2022-11-27T12:25:54.609Z,6.17
2022-11-27T12:28:24.957Z,6.18
2022-11-27T12:30:55.306Z,6.19
2022-11-27T12:33:25.464Z,6.21
2022-11-27T12:35:56.207Z,6.18
2022-11-27T12:38:26.257Z,6.16
2022-11-27T12:40:56.935Z,6.16
2022-11-27T12:43:27.630Z,6.18
2022-11-27T12:45:58.321Z,6.19
2022-11-27T12:48:28.474Z,6.16
2022-11-27T12:50:58.578Z,6.16
2022-11-27T12:53:28.689Z,6.15
2022-11-27T12:55:59.112Z,6.15
2022-11-27T12:58:29.310Z,6.15
2022-11-27T13:00:59.416Z,6.14
2022-11-27T13:03:29.761Z,6.13
2022-11-27T13:05:59.897Z,6.01
2022-11-27T13:08:30.131Z,5.99
2022-11-27T13:11:00.661Z,5.96
2022-11-27T13:13:31.348Z,5.95
2022-11-27T13:16:02.038Z,6.01
2022-11-27T13:18:32.061Z,6.10
2022-11-27T13:21:02.796Z,6.15
2022-11-27T13:23:33.207Z,6.16
2022-11-27T13:26:03.948Z,6.15
2022-11-27T13:28:34.553Z,6.10
2022-11-27T13:31:05.441Z,6.10
2022-11-27T13:33:35.739Z,6.08
2022-11-27T13:36:06.160Z,6.09
2022-11-27T13:38:36.442Z,6.07
2022-11-27T13:41:07.174Z,6.10
2022-11-27T13:43:37.871Z,6.15
2022-11-27T13:46:08.129Z,6.23
2022-11-27T13:48:38.473Z,6.26
2022-11-27T13:51:09.235Z,6.28
2022-11-27T13:53:39.527Z,6.30
2022-11-27T13:56:09.983Z,6.33
2022-11-27T13:58:40.526Z,6.33
2022-11-27T14:01:11.029Z,6.35
2022-11-27T14:03:40.885Z,6.34
2022-11-27T14:06:11.600Z,6.33
2022-11-27T14:08:41.608Z,6.34
2022-11-27T14:11:12.397Z,6.35
2022-11-27T14:13:42.545Z,6.37
2022-11-27T14:16:13.346Z,6.39
2022-11-27T14:18:43.943Z,6.37
2022-11-27T14:21:14.734Z,6.39
2022-11-27T14:23:44.983Z,6.39
2022-11-27T14:26:15.914Z,6.40
2022-11-27T14:28:46.389Z,6.44
2022-11-27T14:31:17.146Z,6.47
2022-11-27T14:34:13.562Z,6.47
2022-11-27T14:36:18.523Z,6.45
2022-11-27T14:38:49.217Z,6.47
2022-11-27T14:41:19.379Z,6.47
2022-11-27T14:43:49.721Z,6.49
2022-11-27T14:46:20.172Z,6.53
2022-11-27T14:48:50.818Z,6.57
2022-11-27T14:51:21.247Z,6.59
2022-11-27T14:53:51.996Z,6.58
2022-11-27T14:56:22.657Z,6.60
2022-11-27T14:58:53.340Z,6.62
2022-11-27T15:01:23.738Z,6.65
2022-11-27T15:03:53.840Z,6.67
2022-11-27T15:06:24.492Z,6.65
2022-11-27T15:09:23.735Z,6.61
2022-11-27T15:11:54.018Z,6.61
2022-11-27T15:13:56.153Z,6.62
2022-11-27T15:16:27.020Z,6.59
2022-11-27T15:18:57.258Z,6.57
2022-11-27T15:21:27.943Z,6.56
2022-11-27T15:23:58.619Z,6.52
2022-11-27T15:26:28.772Z,6.51
2022-11-27T15:28:58.819Z,6.49
2022-11-27T15:31:29.626Z,6.47
2022-11-27T15:34:00.326Z,6.47
2022-11-27T15:36:30.640Z,6.44
2022-11-27T15:39:01.326Z,6.41
2022-11-27T15:41:32.041Z,6.35
2022-11-27T15:44:02.373Z,6.31
2022-11-27T15:46:32.823Z,6.30
2022-11-27T15:49:02.875Z,6.28
2022-11-27T15:51:33.594Z,6.24
2022-11-27T15:54:04.045Z,6.21
2022-11-27T15:56:34.735Z,6.20
2022-11-27T15:59:05.138Z,6.18
2022-11-27T16:01:35.554Z,6.18
2022-11-27T16:04:05.918Z,6.18
2022-11-27T16:06:36.363Z,6.20
2022-11-27T16:09:06.499Z,6.14
2022-11-27T16:11:37.173Z,6.15
2022-11-27T16:14:07.171Z,6.15
2022-11-27T16:16:37.547Z,6.14
2022-11-27T16:19:08.107Z,6.02
2022-11-27T16:21:38.569Z,6.01
2022-11-27T16:24:09.454Z,6.04
2022-11-27T16:26:39.377Z,6.05
2022-11-27T16:29:09.610Z,6.10
2022-11-27T16:31:39.970Z,6.14
2022-11-27T16:34:10.342Z,6.19
2022-11-27T16:36:41.061Z,6.23
2022-11-27T16:39:11.745Z,6.23
2022-11-27T16:41:41.864Z,6.29
2022-11-27T16:44:14.390Z,6.28
2022-11-27T16:46:42.795Z,6.30
2022-11-27T16:49:13.422Z,6.30
2022-11-27T16:51:43.806Z,6.28
2022-11-27T16:54:14.482Z,6.29
2022-11-27T16:56:44.932Z,6.32
2022-11-27T16:59:15.625Z,6.36
2022-11-27T17:01:46.460Z,6.38
2022-11-27T17:04:16.981Z,6.37
2022-11-27T17:06:47.678Z,6.35
2022-11-27T17:09:18.067Z,6.34
2022-11-27T17:11:48.675Z,6.34
2022-11-27T17:14:18.743Z,6.34
2022-11-27T17:16:49.208Z,6.34
2022-11-27T17:19:19.835Z,6.32
2022-11-27T17:21:50.243Z,6.36
2022-11-27T17:24:20.587Z,6.35
2022-11-27T17:26:51.035Z,6.40
2022-11-27T17:29:21.047Z,6.39
2022-11-27T17:31:51.629Z,6.38
2022-11-27T17:34:22.146Z,6.34
2022-11-27T17:36:52.212Z,6.33
2022-11-27T17:39:22.604Z,6.23
2022-11-27T17:41:53.305Z,6.25
2022-11-27T17:44:23.701Z,6.19
2022-11-27T17:46:54.090Z,6.17
2022-11-27T17:49:24.718Z,6.12
2022-11-27T17:51:55.138Z,6.09
2022-11-27T17:54:25.817Z,6.07
2022-11-27T17:56:56.268Z,6.09
2022-11-27T17:59:26.998Z,6.12
2022-11-27T18:01:57.347Z,6.12
2022-11-27T18:04:27.979Z,6.17
2022-11-27T18:06:58.104Z,6.16
2022-11-27T18:09:28.442Z,6.12
2022-11-27T18:11:58.889Z,6.10
2022-11-27T18:14:29.550Z,6.13
2022-11-27T18:17:00.096Z,6.11
2022-11-27T18:19:30.655Z,6.10
2022-11-27T18:22:01.370Z,6.16
2022-11-27T18:24:31.421Z,6.27
2022-11-27T18:27:09.191Z,6.35
2022-11-27T18:29:32.161Z,6.35
2022-11-27T18:32:02.941Z,6.28
2022-11-27T18:34:33.244Z,6.19
2022-11-27T18:37:03.687Z,6.12
2022-11-27T18:39:34.351Z,6.08
2022-11-27T18:42:04.706Z,6.00
2022-11-27T18:44:39.806Z,5.99
2022-11-27T18:47:06.223Z,6.03
2022-11-27T18:49:36.771Z,5.98
2022-11-27T18:52:07.634Z,5.90
2022-11-27T18:54:37.605Z,5.92
2022-11-27T18:57:08.349Z,5.97
2022-11-27T18:59:39.389Z,6.01
2022-11-27T19:02:09.826Z,6.04
2022-11-27T19:04:40.535Z,6.12
2022-11-27T19:07:10.778Z,6.14
2022-11-27T19:09:41.199Z,6.13
2022-11-27T19:12:11.546Z,6.17
2022-11-27T19:14:42.442Z,6.17
2022-11-27T19:17:12.326Z,6.22
2022-11-27T19:20:04.725Z,6.26
2022-11-27T19:22:13.637Z,6.23
2022-11-27T19:24:44.370Z,6.24
2022-11-27T19:27:14.996Z,6.23
2022-11-27T19:29:45.770Z,6.21
2022-11-27T19:32:16.348Z,6.21
2022-11-27T19:34:47.089Z,6.18
2022-11-27T19:37:28.928Z,6.23
2022-11-27T19:39:47.751Z,6.26
2022-11-27T19:42:18.477Z,6.22
2022-11-27T19:44:48.814Z,6.21
2022-11-27T19:47:19.520Z,6.25
2022-11-27T19:49:50.179Z,6.27
2022-11-27T19:52:20.886Z,6.28
2022-11-27T19:54:51.639Z,6.30
2022-11-27T19:57:22.265Z,6.24
2022-11-27T19:59:52.907Z,6.22
2022-11-27T20:02:23.366Z,6.21
2022-11-27T20:04:53.502Z,6.18
2022-11-27T20:07:24.444Z,6.14
2022-11-27T20:09:55.009Z,6.12
2022-11-27T20:12:25.721Z,6.12
2022-11-27T20:14:56.362Z,6.14
2022-11-27T20:17:27.054Z,6.07
2022-11-27T20:19:57.723Z,6.03
2022-11-27T20:22:27.855Z,6.05
2022-11-27T20:25:18.382Z,6.03
2022-11-27T20:27:28.667Z,6.02
2022-11-27T20:29:59.273Z,6.02
2022-11-27T20:32:29.975Z,6.00
2022-11-27T20:35:00.648Z,5.95
2022-11-27T20:37:31.359Z,5.89
2022-11-27T20:40:02.039Z,5.87
2022-11-27T20:42:32.764Z,5.85
2022-11-27T20:45:03.583Z,5.88
2022-11-27T20:47:34.145Z,5.89
2022-11-27T20:50:04.832Z,5.87
2022-11-27T20:52:35.544Z,5.89
2022-11-27T20:55:06.216Z,5.90
2022-11-27T20:57:37.113Z,5.95
2022-11-27T21:00:07.612Z,5.91
2022-11-27T21:02:38.480Z,5.94
2022-11-27T21:05:08.998Z,5.95
2022-11-27T21:07:39.812Z,5.90
2022-11-27T21:10:10.382Z,5.94
2022-11-27T21:12:41.136Z,5.92
2022-11-27T21:15:11.769Z,5.95
2022-11-27T21:17:42.514Z,5.97
2022-11-27T21:20:12.864Z,5.96
2022-11-27T21:22:43.660Z,5.98
2022-11-27T21:25:14.243Z,5.96
2022-11-27T21:27:44.602Z,5.92
2022-11-27T21:30:15.195Z,5.94
2022-11-27T21:32:45.578Z,5.90
2022-11-27T21:35:16.080Z,5.93
2022-11-27T21:37:46.837Z,5.94
2022-11-27T21:40:17.451Z,5.86
2022-11-27T21:42:47.820Z,5.93
2022-11-27T21:45:18.589Z,5.91
2022-11-27T21:47:56.040Z,5.91
2022-11-27T21:50:19.868Z,5.85
2022-11-27T21:52:50.544Z,5.85
2022-11-27T21:55:21.488Z,5.85
2022-11-27T21:57:51.955Z,5.86
2022-11-27T22:00:22.636Z,5.83
2022-11-27T22:02:53.392Z,5.76
2022-11-27T22:05:24.014Z,5.75
2022-11-27T22:07:54.790Z,5.77
2022-11-27T22:10:25.401Z,5.76
2022-11-27T22:12:56.233Z,5.80
2022-11-27T22:15:26.921Z,5.75
2022-11-27T22:17:57.479Z,5.84
2022-11-27T22:20:28.177Z,5.85
2022-11-27T22:22:58.853Z,5.87
2022-11-27T22:25:29.717Z,5.87
2022-11-27T22:28:00.243Z,5.88
2022-11-27T22:30:31.075Z,5.87
2022-11-27T22:33:01.593Z,5.83
2022-11-27T22:35:32.306Z,5.89
2022-11-27T22:38:02.978Z,5.88
2022-11-27T22:40:33.676Z,5.92
2022-11-27T22:43:04.113Z,5.94
2022-11-27T22:45:34.831Z,5.97
2022-11-27T22:48:05.179Z,5.89
2022-11-27T22:50:35.898Z,5.85
2022-11-27T22:53:06.551Z,5.86
2022-11-27T22:55:37.268Z,5.92
2022-11-27T22:58:07.952Z,5.90
2022-11-27T23:00:38.646Z,5.92
2022-11-27T23:03:09.373Z,5.93
2022-11-27T23:05:40.034Z,5.95
2022-11-27T23:08:10.799Z,6.00
2022-11-27T23:10:41.420Z,5.89
2022-11-27T23:13:12.124Z,5.83
2022-11-27T23:15:42.795Z,5.89
2022-11-27T23:18:13.472Z,5.86
2022-11-27T23:20:44.209Z,5.93
2022-11-27T23:23:14.863Z,5.92
2022-11-27T23:25:45.676Z,5.90
2022-11-27T23:28:15.922Z,5.89
2022-11-27T23:30:46.602Z,5.97
2022-11-27T23:33:17.285Z,6.01
2022-11-27T23:35:47.701Z,6.04
2022-11-27T23:38:18.375Z,6.05
2022-11-27T23:40:48.783Z,6.07
2022-11-27T23:43:19.494Z,6.06
2022-11-27T23:45:50.205Z,6.02
2022-11-27T23:48:20.826Z,6.05
2022-11-27T23:50:51.555Z,6.02
2022-11-27T23:53:21.675Z,6.04
2022-11-27T23:55:52.283Z,6.00
2022-11-27T23:58:22.681Z,6.00
